Pagina principală
METAR-TAF:

METAR-TAF

Aeroporturi :

Sulphur Springs Municipal Airport

Sulphur Springs, Texas, Statele Unite ale Americii

Latitudine: 33-09-40N, longitudine: 095-37-16W, elevație: 149 m

Observații meteo curente

Raportul a fost făcut în urmă cu 35 de minute, la 21:15 UTC
Vânt 8 kt de la Sud/Sud-vest, variabil între Sud și Vest/Sud-vest
Temperatură 34°C
Umiditate 41%
Presiune 1016 hPa

METAR: KSLR 222115Z AUTO 21008KT 180V240 34/19 A3001 RMK AO2 T03390190 PWINO

Ora: 16:50 (21:50 UTC)


TAF: lipsă

Observații și prognoze meteo pentru peste 4.000 de aeroporturi (rapoarte METAR și TAF).

Stațiile disponibile sunt reprezentate pe hartă prin puncte galbene și roșii.

Țineți indicatorul mouse-ului pe punctul dorit pentru a vedea denumirea stației.

Apoi, faceți clic pentru a vedea observațiile și prognozele meteorologice.

Pentru a schimba harta: Pentru mărire, faceți clic pe butoanele verzi cu cruce neagră; pentru micșorare, pe butonul verde cu o liniuță; pentru hărți învecinate, pe săgețile verzi.


METAR-TAF: